Terminal Aerodrome Forecast
Issued by NWS

Home | Current Version | Previous Version | Text Only | Print | Product List | Glossary On
Versions: 1 2 3 4 5 6 7 8 9 10 11 12 13 14 15 16 17
000
FTUS41 KBOX 251125
TAFHYA
TAF
KHYA 251125Z 2512/2612 28004KT P6SM SCT100
     FM251600 26009KT P6SM FEW050 FEW250
     FM252100 23010G18KT P6SM FEW050 FEW250
     FM260600 22014G21KT P6SM BKN060
     FM260900 24008KT P6SM BKN250=

USA.gov is the U.S. government's official web portal to all federal, state and local government web resources and services.